sensor_id;sensor_type;location;lat;lon;timestamp;pressure;altitude;pressure_sealevel;temperature;humidity
3082;BME280;1551;51.046;7.010;2024-02-16T00:00:15;100434.34;;;14.18;75.44
3082;BME280;1551;51.046;7.010;2024-02-16T00:03:05;100435.22;;;14.17;75.00
3082;BME280;1551;51.046;7.010;2024-02-16T00:05:55;100430.94;;;14.16;75.36
3082;BME280;1551;51.046;7.010;2024-02-16T00:08:44;100441.16;;;14.19;75.30
3082;BME280;1551;51.046;7.010;2024-02-16T00:11:33;100436.00;;;14.19;75.28
3082;BME280;1551;51.046;7.010;2024-02-16T00:14:22;100437.59;;;14.23;74.67
3082;BME280;1551;51.046;7.010;2024-02-16T00:17:11;100435.00;;;14.25;74.86
3082;BME280;1551;51.046;7.010;2024-02-16T00:19:59;100427.22;;;14.26;74.80
3082;BME280;1551;51.046;7.010;2024-02-16T00:22:48;100423.78;;;14.26;74.64
3082;BME280;1551;51.046;7.010;2024-02-16T00:25:37;100417.00;;;14.23;74.30
3082;BME280;1551;51.046;7.010;2024-02-16T00:28:28;100423.06;;;14.22;74.53
3082;BME280;1551;51.046;7.010;2024-02-16T00:31:17;100421.41;;;14.20;74.71
3082;BME280;1551;51.046;7.010;2024-02-16T00:34:06;100428.28;;;14.19;74.88
3082;BME280;1551;51.046;7.010;2024-02-16T00:36:54;100428.34;;;14.18;74.65
3082;BME280;1551;51.046;7.010;2024-02-16T00:39:44;100434.34;;;14.18;74.80
3082;BME280;1551;51.046;7.010;2024-02-16T00:42:33;100433.25;;;14.25;74.46
3082;BME280;1551;51.046;7.010;2024-02-16T00:45:22;100440.03;;;14.28;74.63
3082;BME280;1551;51.046;7.010;2024-02-16T00:48:11;100435.75;;;14.30;74.53
3082;BME280;1551;51.046;7.010;2024-02-16T00:51:00;100431.38;;;14.32;74.16
3082;BME280;1551;51.046;7.010;2024-02-16T00:53:49;100427.03;;;14.34;74.34
3082;BME280;1551;51.046;7.010;2024-02-16T00:56:38;100428.69;;;14.36;73.89
3082;BME280;1551;51.046;7.010;2024-02-16T00:59:31;100437.13;;;14.41;74.09
3082;BME280;1551;51.046;7.010;2024-02-16T01:02:20;100427.59;;;14.43;73.95
3082;BME280;1551;51.046;7.010;2024-02-16T01:05:10;100429.28;;;14.44;74.00
3082;BME280;1551;51.046;7.010;2024-02-16T01:08:00;100426.66;;;14.46;73.83
3082;BME280;1551;51.046;7.010;2024-02-16T01:10:49;100436.06;;;14.47;73.62
3082;BME280;1551;51.046;7.010;2024-02-16T01:13:39;100435.19;;;14.48;73.58
3082;BME280;1551;51.046;7.010;2024-02-16T01:16:28;100436.97;;;14.46;73.17
3082;BME280;1551;51.046;7.010;2024-02-16T01:19:17;100434.41;;;14.46;73.53
3082;BME280;1551;51.046;7.010;2024-02-16T01:22:06;100431.84;;;14.44;73.17
3082;BME280;1551;51.046;7.010;2024-02-16T01:24:55;100431.03;;;14.44;73.51
3082;BME280;1551;51.046;7.010;2024-02-16T01:27:44;100420.72;;;14.44;73.61
3082;BME280;1551;51.046;7.010;2024-02-16T01:30:33;100422.41;;;14.45;72.96
3082;BME280;1551;51.046;7.010;2024-02-16T01:33:22;100420.69;;;14.45;73.13
3082;BME280;1551;51.046;7.010;2024-02-16T01:36:11;100414.63;;;14.46;73.29
3082;BME280;1551;51.046;7.010;2024-02-16T01:39:00;100411.22;;;14.46;72.81
3082;BME280;1551;51.046;7.010;2024-02-16T01:41:49;100417.16;;;14.48;72.66
3082;BME280;1551;51.046;7.010;2024-02-16T01:44:38;100409.38;;;14.50;72.81
3082;BME280;1551;51.046;7.010;2024-02-16T01:47:27;100406.88;;;14.48;72.78
3082;BME280;1551;51.046;7.010;2024-02-16T01:50:18;100406.00;;;14.48;72.83
3082;BME280;1551;51.046;7.010;2024-02-16T01:53:08;100403.34;;;14.51;73.12
3082;BME280;1551;51.046;7.010;2024-02-16T01:55:56;100406.78;;;14.51;72.70
3082;BME280;1551;51.046;7.010;2024-02-16T01:58:46;100399.06;;;14.51;72.63
3082;BME280;1551;51.046;7.010;2024-02-16T02:01:36;100402.41;;;14.53;72.58
3082;BME280;1551;51.046;7.010;2024-02-16T02:04:26;100399.09;;;14.50;72.78
3082;BME280;1551;51.046;7.010;2024-02-16T02:07:15;100403.16;;;14.57;72.73
3082;BME280;1551;51.046;7.010;2024-02-16T02:10:05;100411.66;;;14.59;72.10
3082;BME280;1551;51.046;7.010;2024-02-16T02:12:54;100410.84;;;14.58;72.17
3082;BME280;1551;51.046;7.010;2024-02-16T02:15:43;100402.28;;;14.58;72.55
3082;BME280;1551;51.046;7.010;2024-02-16T02:18:32;100402.16;;;14.61;72.09
3082;BME280;1551;51.046;7.010;2024-02-16T02:21:21;100402.06;;;14.64;72.38
3082;BME280;1551;51.046;7.010;2024-02-16T02:24:09;100398.63;;;14.65;72.06
3082;BME280;1551;51.046;7.010;2024-02-16T02:26:59;100401.19;;;14.65;71.92
3082;BME280;1551;51.046;7.010;2024-02-16T02:29:48;100406.28;;;14.66;72.45
3082;BME280;1551;51.046;7.010;2024-02-16T02:32:37;100398.56;;;14.66;71.90
3082;BME280;1551;51.046;7.010;2024-02-16T02:35:26;100397.78;;;14.64;71.98
3082;BME280;1551;51.046;7.010;2024-02-16T02:38:15;100389.97;;;14.66;72.42
3082;BME280;1551;51.046;7.010;2024-02-16T02:41:04;100396.03;;;14.65;72.70
3082;BME280;1551;51.046;7.010;2024-02-16T02:43:52;100380.59;;;14.65;72.72
3082;BME280;1551;51.046;7.010;2024-02-16T02:46:41;100383.19;;;14.63;72.88
3082;BME280;1551;51.046;7.010;2024-02-16T02:49:30;100380.75;;;14.60;73.42
3082;BME280;1551;51.046;7.010;2024-02-16T02:52:21;100384.19;;;14.59;73.49
3082;BME280;1551;51.046;7.010;2024-02-16T02:55:10;100396.13;;;14.62;73.82
3082;BME280;1551;51.046;7.010;2024-02-16T02:57:59;100393.66;;;14.59;73.89
3082;BME280;1551;51.046;7.010;2024-02-16T03:00:48;100391.06;;;14.59;73.94
3082;BME280;1551;51.046;7.010;2024-02-16T03:03:39;100380.88;;;14.56;74.60
3082;BME280;1551;51.046;7.010;2024-02-16T03:06:27;100367.94;;;14.57;74.35
3082;BME280;1551;51.046;7.010;2024-02-16T03:09:16;100372.25;;;14.57;74.61
3082;BME280;1551;51.046;7.010;2024-02-16T03:12:05;100374.13;;;14.52;74.18
3082;BME280;1551;51.046;7.010;2024-02-16T03:14:55;100369.88;;;14.51;74.76
3082;BME280;1551;51.046;7.010;2024-02-16T03:17:45;100399.09;;;14.50;74.66
3082;BME280;1551;51.046;7.010;2024-02-16T03:20:34;100394.00;;;14.46;76.01
3082;BME280;1551;51.046;7.010;2024-02-16T03:23:25;100388.97;;;14.43;76.21
3082;BME280;1551;51.046;7.010;2024-02-16T03:26:15;100389.13;;;14.39;77.11
3082;BME280;1551;51.046;7.010;2024-02-16T03:29:04;100381.56;;;14.33;77.45
3082;BME280;1551;51.046;7.010;2024-02-16T03:31:53;100369.75;;;14.26;77.63
3082;BME280;1551;51.046;7.010;2024-02-16T03:34:42;100366.38;;;14.24;78.14
3082;BME280;1551;51.046;7.010;2024-02-16T03:37:31;100371.72;;;14.18;78.10
3082;BME280;1551;51.046;7.010;2024-02-16T03:40:20;100365.84;;;14.13;78.21
3082;BME280;1551;51.046;7.010;2024-02-16T03:43:09;100359.16;;;14.07;78.37
3082;BME280;1551;51.046;7.010;2024-02-16T03:45:58;100358.34;;;14.05;78.83
3082;BME280;1551;51.046;7.010;2024-02-16T03:48:46;100366.03;;;14.07;78.98
3082;BME280;1551;51.046;7.010;2024-02-16T03:51:35;100368.59;;;14.07;78.57
3082;BME280;1551;51.046;7.010;2024-02-16T03:54:26;100368.50;;;14.10;79.00
3082;BME280;1551;51.046;7.010;2024-02-16T03:57:15;100375.31;;;14.12;78.74
3082;BME280;1551;51.046;7.010;2024-02-16T04:00:05;100376.16;;;14.13;78.46
3082;BME280;1551;51.046;7.010;2024-02-16T04:03:01;100375.38;;;14.11;78.21
3082;BME280;1551;51.046;7.010;2024-02-16T04:05:50;100375.31;;;14.12;78.41
3082;BME280;1551;51.046;7.010;2024-02-16T04:08:41;100372.72;;;14.12;78.69
3082;BME280;1551;51.046;7.010;2024-02-16T04:11:30;100376.22;;;14.10;78.29
3082;BME280;1551;51.046;7.010;2024-02-16T04:14:20;100377.13;;;14.09;78.67
3082;BME280;1551;51.046;7.010;2024-02-16T04:17:09;100374.50;;;14.10;78.77
3082;BME280;1551;51.046;7.010;2024-02-16T04:19:58;100377.88;;;14.12;78.73
3082;BME280;1551;51.046;7.010;2024-02-16T04:22:47;100356.44;;;14.12;78.34
3082;BME280;1551;51.046;7.010;2024-02-16T04:25:36;100362.34;;;14.15;78.53
3082;BME280;1551;51.046;7.010;2024-02-16T04:28:25;100368.22;;;14.19;78.20
3082;BME280;1551;51.046;7.010;2024-02-16T04:31:14;100378.53;;;14.19;78.30
3082;BME280;1551;51.046;7.010;2024-02-16T04:34:03;100356.22;;;14.19;78.55
3082;BME280;1551;51.046;7.010;2024-02-16T04:36:52;100369.09;;;14.19;78.38
3082;BME280;1551;51.046;7.010;2024-02-16T04:39:41;100382.84;;;14.18;78.72
3082;BME280;1551;51.046;7.010;2024-02-16T04:42:31;100386.38;;;14.14;78.76
3082;BME280;1551;51.046;7.010;2024-02-16T04:45:20;100399.47;;;14.07;78.80
3082;BME280;1551;51.046;7.010;2024-02-16T04:48:08;100390.97;;;14.05;79.51
3082;BME280;1551;51.046;7.010;2024-02-16T04:50:57;100402.94;;;14.06;79.64
3082;BME280;1551;51.046;7.010;2024-02-16T04:53:46;100391.00;;;14.03;79.49
3082;BME280;1551;51.046;7.010;2024-02-16T04:56:36;100392.66;;;14.06;79.54
3082;BME280;1551;51.046;7.010;2024-02-16T04:59:25;100412.34;;;14.07;79.76
3082;BME280;1551;51.046;7.010;2024-02-16T05:02:14;100419.41;;;14.00;79.72
3082;BME280;1551;51.046;7.010;2024-02-16T05:05:03;100409.25;;;13.96;80.27
3082;BME280;1551;51.046;7.010;2024-02-16T05:07:52;100413.72;;;13.89;80.31
3082;BME280;1551;51.046;7.010;2024-02-16T05:10:42;100423.22;;;13.87;80.90
3082;BME280;1551;51.046;7.010;2024-02-16T05:13:30;100412.75;;;13.93;80.93
3082;BME280;1551;51.046;7.010;2024-02-16T05:16:19;100413.50;;;13.97;81.36
3082;BME280;1551;51.046;7.010;2024-02-16T05:19:08;100410.03;;;13.98;80.90
3082;BME280;1551;51.046;7.010;2024-02-16T05:21:57;100407.44;;;13.99;81.02
3082;BME280;1551;51.046;7.010;2024-02-16T05:24:46;100417.63;;;14.02;81.02
3082;BME280;1551;51.046;7.010;2024-02-16T05:27:36;100402.28;;;13.99;81.30
3082;BME280;1551;51.046;7.010;2024-02-16T05:30:26;100403.09;;;14.01;81.26
3082;BME280;1551;51.046;7.010;2024-02-16T05:33:15;100404.88;;;13.99;81.53
3082;BME280;1551;51.046;7.010;2024-02-16T05:36:04;100403.97;;;14.00;81.72
3082;BME280;1551;51.046;7.010;2024-02-16T05:38:53;100409.16;;;13.99;81.89
3082;BME280;1551;51.046;7.010;2024-02-16T05:41:44;100399.66;;;14.01;82.00
3082;BME280;1551;51.046;7.010;2024-02-16T05:44:33;100397.16;;;13.99;81.87
3082;BME280;1551;51.046;7.010;2024-02-16T05:47:23;100387.81;;;13.95;82.23
3082;BME280;1551;51.046;7.010;2024-02-16T05:50:12;100391.22;;;13.96;82.16
3082;BME280;1551;51.046;7.010;2024-02-16T05:53:01;100391.22;;;13.96;82.15
3082;BME280;1551;51.046;7.010;2024-02-16T05:55:50;100385.28;;;13.94;82.02
3082;BME280;1551;51.046;7.010;2024-02-16T05:58:39;100395.56;;;13.94;82.27
3082;BME280;1551;51.046;7.010;2024-02-16T06:01:31;100396.59;;;13.88;82.09
3082;BME280;1551;51.046;7.010;2024-02-16T06:04:20;100389.78;;;13.87;82.58
3082;BME280;1551;51.046;7.010;2024-02-16T06:07:09;100388.06;;;13.86;82.54
3082;BME280;1551;51.046;7.010;2024-02-16T06:09:59;100384.69;;;13.84;82.54
3082;BME280;1551;51.046;7.010;2024-02-16T06:12:48;100391.56;;;13.84;82.93
3082;BME280;1551;51.046;7.010;2024-02-16T06:15:37;100407.84;;;13.84;82.88
3082;BME280;1551;51.046;7.010;2024-02-16T06:18:27;100404.50;;;13.82;83.05
3082;BME280;1551;51.046;7.010;2024-02-16T06:21:18;100407.91;;;13.83;82.55
3082;BME280;1551;51.046;7.010;2024-02-16T06:24:07;100408.66;;;13.86;82.76
3082;BME280;1551;51.046;7.010;2024-02-16T06:26:56;100410.34;;;13.87;82.89
3082;BME280;1551;51.046;7.010;2024-02-16T06:29:45;100409.44;;;13.90;82.56
3082;BME280;1551;51.046;7.010;2024-02-16T06:32:34;100401.59;;;13.93;82.46
3082;BME280;1551;51.046;7.010;2024-02-16T06:35:23;100401.44;;;13.99;82.58
3082;BME280;1551;51.046;7.010;2024-02-16T06:38:12;100397.09;;;14.01;81.98
3082;BME280;1551;51.046;7.010;2024-02-16T06:41:01;100386.72;;;14.04;81.87
3082;BME280;1551;51.046;7.010;2024-02-16T06:43:52;100389.25;;;14.05;81.92
3082;BME280;1551;51.046;7.010;2024-02-16T06:46:41;100397.75;;;14.07;81.61
3082;BME280;1551;51.046;7.010;2024-02-16T06:49:31;100391.72;;;14.08;81.56
3082;BME280;1551;51.046;7.010;2024-02-16T06:52:20;100393.44;;;14.08;81.04
3082;BME280;1551;51.046;7.010;2024-02-16T06:55:08;100391.66;;;14.11;81.21
3082;BME280;1551;51.046;7.010;2024-02-16T06:57:57;100401.84;;;14.14;80.59
3082;BME280;1551;51.046;7.010;2024-02-16T07:00:46;100403.47;;;14.17;80.45
3082;BME280;1551;51.046;7.010;2024-02-16T07:03:35;100421.34;;;14.23;80.52
3082;BME280;1551;51.046;7.010;2024-02-16T07:06:25;100441.81;;;14.26;79.95
3082;BME280;1551;51.046;7.010;2024-02-16T07:09:15;100442.59;;;14.29;79.83
3082;BME280;1551;51.046;7.010;2024-02-16T07:12:04;100451.94;;;14.33;80.11
3082;BME280;1551;51.046;7.010;2024-02-16T07:14:55;100451.84;;;14.36;79.52
3082;BME280;1551;51.046;7.010;2024-02-16T07:17:44;100461.31;;;14.36;79.76
3082;BME280;1551;51.046;7.010;2024-02-16T07:20:33;100466.50;;;14.34;79.67
3082;BME280;1551;51.046;7.010;2024-02-16T07:23:22;100475.09;;;14.33;79.91
3082;BME280;1551;51.046;7.010;2024-02-16T07:26:11;100471.66;;;14.34;79.98
3082;BME280;1551;51.046;7.010;2024-02-16T07:29:00;100475.88;;;14.37;79.64
3082;BME280;1551;51.046;7.010;2024-02-16T07:31:49;100478.31;;;14.41;79.71
3082;BME280;1551;51.046;7.010;2024-02-16T07:34:40;100482.34;;;14.50;80.02
3082;BME280;1551;51.046;7.010;2024-02-16T07:37:29;100482.19;;;14.55;79.43
3082;BME280;1551;51.046;7.010;2024-02-16T07:40:17;100497.47;;;14.61;79.06
3082;BME280;1551;51.046;7.010;2024-02-16T07:43:06;100493.13;;;14.63;78.97
3082;BME280;1551;51.046;7.010;2024-02-16T07:45:57;100503.25;;;14.69;79.04
3082;BME280;1551;51.046;7.010;2024-02-16T07:48:46;100516.91;;;14.72;78.68
3082;BME280;1551;51.046;7.010;2024-02-16T07:51:35;100513.34;;;14.75;78.25
3082;BME280;1551;51.046;7.010;2024-02-16T07:54:24;100514.97;;;14.79;78.20
3082;BME280;1551;51.046;7.010;2024-02-16T07:57:13;100514.91;;;14.80;77.98
3082;BME280;1551;51.046;7.010;2024-02-16T08:00:02;100520.97;;;14.79;77.68
3082;BME280;1551;51.046;7.010;2024-02-16T08:02:53;100524.44;;;14.78;77.55
3082;BME280;1551;51.046;7.010;2024-02-16T08:05:42;100526.00;;;14.82;77.32
3082;BME280;1551;51.046;7.010;2024-02-16T08:08:31;100536.44;;;14.79;77.73
3082;BME280;1551;51.046;7.010;2024-02-16T08:11:20;100542.31;;;14.83;77.17
3082;BME280;1551;51.046;7.010;2024-02-16T08:14:09;100543.13;;;14.85;77.55
3082;BME280;1551;51.046;7.010;2024-02-16T08:16:58;100547.28;;;14.89;77.13
3082;BME280;1551;51.046;7.010;2024-02-16T08:19:52;100547.19;;;14.92;76.67
3082;BME280;1551;51.046;7.010;2024-02-16T08:22:42;100540.41;;;14.89;76.65
3082;BME280;1551;51.046;7.010;2024-02-16T08:25:31;100549.63;;;14.96;76.48
3082;BME280;1551;51.046;7.010;2024-02-16T08:28:22;100545.09;;;15.04;76.65
3082;BME280;1551;51.046;7.010;2024-02-16T08:31:17;100552.69;;;15.09;76.34
3082;BME280;1551;51.046;7.010;2024-02-16T08:34:06;100547.34;;;15.15;76.50
3082;BME280;1551;51.046;7.010;2024-02-16T08:36:56;100548.97;;;15.18;76.05
3082;BME280;1551;51.046;7.010;2024-02-16T08:39:45;100552.41;;;15.18;76.04
3082;BME280;1551;51.046;7.010;2024-02-16T08:42:33;100545.38;;;15.23;76.23
3082;BME280;1551;51.046;7.010;2024-02-16T08:45:22;100558.84;;;15.31;75.88
3082;BME280;1551;51.046;7.010;2024-02-16T08:48:11;100556.25;;;15.33;75.57
3082;BME280;1551;51.046;7.010;2024-02-16T08:51:00;100558.75;;;15.34;75.51
3082;BME280;1551;51.046;7.010;2024-02-16T08:53:49;100564.84;;;15.33;75.67
3082;BME280;1551;51.046;7.010;2024-02-16T08:56:38;100563.91;;;15.34;75.72
3082;BME280;1551;51.046;7.010;2024-02-16T08:59:28;100571.38;;;15.43;75.58
3082;BME280;1551;51.046;7.010;2024-02-16T09:02:19;100566.31;;;15.40;75.17
3082;BME280;1551;51.046;7.010;2024-02-16T09:05:08;100574.69;;;15.48;75.18
3082;BME280;1551;51.046;7.010;2024-02-16T09:07:58;100566.63;;;15.59;74.88
3082;BME280;1551;51.046;7.010;2024-02-16T09:10:47;100570.63;;;15.67;74.56
3082;BME280;1551;51.046;7.010;2024-02-16T09:13:39;100565.47;;;15.67;74.32
3082;BME280;1551;51.046;7.010;2024-02-16T09:16:28;100576.06;;;15.85;74.05
3082;BME280;1551;51.046;7.010;2024-02-16T09:19:17;100585.47;;;15.87;73.78
3082;BME280;1551;51.046;7.010;2024-02-16T09:22:06;100585.47;;;15.86;73.35
3082;BME280;1551;51.046;7.010;2024-02-16T09:24:55;100585.47;;;15.87;73.30
3082;BME280;1551;51.046;7.010;2024-02-16T09:27:48;100588.22;;;15.81;73.37
3082;BME280;1551;51.046;7.010;2024-02-16T09:30:38;100592.66;;;15.77;73.92
3082;BME280;1551;51.046;7.010;2024-02-16T09:33:27;100605.44;;;15.80;73.79
3082;BME280;1551;51.046;7.010;2024-02-16T09:36:16;100600.56;;;15.73;74.32
3082;BME280;1551;51.046;7.010;2024-02-16T09:39:05;100610.88;;;15.73;73.81
3082;BME280;1551;51.046;7.010;2024-02-16T09:41:54;100609.88;;;15.77;74.26
3082;BME280;1551;51.046;7.010;2024-02-16T09:44:44;100622.47;;;15.86;73.80
3082;BME280;1551;51.046;7.010;2024-02-16T09:47:34;100618.72;;;15.95;73.41
3082;BME280;1551;51.046;7.010;2024-02-16T09:50:23;100619.75;;;16.15;72.99
3082;BME280;1551;51.046;7.010;2024-02-16T09:53:12;100627.88;;;16.29;72.24
3082;BME280;1551;51.046;7.010;2024-02-16T09:56:05;100628.94;;;16.24;72.40
3082;BME280;1551;51.046;7.010;2024-02-16T09:58:54;100627.25;;;16.23;72.57
3082;BME280;1551;51.046;7.010;2024-02-16T10:01:45;100631.47;;;15.99;72.84
3082;BME280;1551;51.046;7.010;2024-02-16T10:04:34;100628.13;;;15.97;73.17
3082;BME280;1551;51.046;7.010;2024-02-16T10:07:31;100645.59;;;15.89;73.06
3082;BME280;1551;51.046;7.010;2024-02-16T10:10:22;100645.53;;;15.91;73.54
3082;BME280;1551;51.046;7.010;2024-02-16T10:13:11;100646.50;;;15.88;74.05
3082;BME280;1551;51.046;7.010;2024-02-16T10:16:05;100653.53;;;15.83;74.30
3082;BME280;1551;51.046;7.010;2024-02-16T10:18:55;100659.34;;;15.90;74.07
3082;BME280;1551;51.046;7.010;2024-02-16T10:21:46;100668.00;;;15.89;74.10
3082;BME280;1551;51.046;7.010;2024-02-16T10:24:35;100663.31;;;16.00;74.41
3082;BME280;1551;51.046;7.010;2024-02-16T10:27:24;100675.91;;;16.09;74.39
3082;BME280;1551;51.046;7.010;2024-02-16T10:30:13;100661.81;;;16.19;74.04
3082;BME280;1551;51.046;7.010;2024-02-16T10:33:03;100668.47;;;16.26;73.69
3082;BME280;1551;51.046;7.010;2024-02-16T10:35:52;100686.00;;;16.16;74.17
3082;BME280;1551;51.046;7.010;2024-02-16T10:38:44;100689.53;;;16.14;74.71
3082;BME280;1551;51.046;7.010;2024-02-16T10:41:35;100692.50;;;16.02;75.39
3082;BME280;1551;51.046;7.010;2024-02-16T10:44:26;100702.19;;;15.95;75.47
3082;BME280;1551;51.046;7.010;2024-02-16T10:47:16;100699.91;;;15.86;75.84
3082;BME280;1551;51.046;7.010;2024-02-16T10:50:06;100697.47;;;15.81;76.17
3082;BME280;1551;51.046;7.010;2024-02-16T10:52:57;100696.75;;;15.76;76.29
3082;BME280;1551;51.046;7.010;2024-02-16T10:55:48;100705.34;;;15.77;76.50
3082;BME280;1551;51.046;7.010;2024-02-16T10:58:37;100705.28;;;15.78;76.65
3082;BME280;1551;51.046;7.010;2024-02-16T11:01:25;100706.00;;;15.83;77.31
3082;BME280;1551;51.046;7.010;2024-02-16T11:04:16;100705.94;;;15.85;77.21
3082;BME280;1551;51.046;7.010;2024-02-16T11:07:15;100709.38;;;15.86;76.99
3082;BME280;1551;51.046;7.010;2024-02-16T11:10:05;100701.59;;;15.87;77.20
3082;BME280;1551;51.046;7.010;2024-02-16T11:13:00;100704.59;;;15.73;77.36
3082;BME280;1551;51.046;7.010;2024-02-16T11:15:57;100702.81;;;15.75;77.58
3082;BME280;1551;51.046;7.010;2024-02-16T11:18:47;100712.88;;;15.85;77.33
3082;BME280;1551;51.046;7.010;2024-02-16T11:21:37;100712.81;;;15.86;77.52
3082;BME280;1551;51.046;7.010;2024-02-16T11:24:31;100722.09;;;15.92;77.64
3082;BME280;1551;51.046;7.010;2024-02-16T11:27:20;100712.19;;;15.78;77.85
3082;BME280;1551;51.046;7.010;2024-02-16T11:30:11;100711.03;;;15.88;77.67
3082;BME280;1551;51.046;7.010;2024-02-16T11:33:00;100717.09;;;15.87;77.59
3082;BME280;1551;51.046;7.010;2024-02-16T11:35:56;100715.75;;;15.74;78.25
3082;BME280;1551;51.046;7.010;2024-02-16T11:38:46;100714.88;;;15.75;78.77
3082;BME280;1551;51.046;7.010;2024-02-16T11:41:35;100710.66;;;15.72;78.75
3082;BME280;1551;51.046;7.010;2024-02-16T11:44:23;100713.88;;;15.79;79.10
3082;BME280;1551;51.046;7.010;2024-02-16T11:47:22;100719.00;;;15.80;79.24
3082;BME280;1551;51.046;7.010;2024-02-16T11:50:14;100714.69;;;15.81;78.87
3082;BME280;1551;51.046;7.010;2024-02-16T11:53:05;100719.78;;;15.82;79.43
3082;BME280;1551;51.046;7.010;2024-02-16T11:55:54;100727.22;;;15.93;79.43
3082;BME280;1551;51.046;7.010;2024-02-16T11:58:42;100729.22;;;15.83;79.38
3082;BME280;1551;51.046;7.010;2024-02-16T12:01:31;100737.81;;;15.84;79.36
3082;BME280;1551;51.046;7.010;2024-02-16T12:04:25;100726.94;;;15.74;79.77
3082;BME280;1551;51.046;7.010;2024-02-16T12:07:14;100726.16;;;15.72;80.27
3082;BME280;1551;51.046;7.010;2024-02-16T12:10:03;100729.56;;;15.73;80.38
3082;BME280;1551;51.046;7.010;2024-02-16T12:12:55;100730.31;;;15.76;80.38
3082;BME280;1551;51.046;7.010;2024-02-16T12:15:45;100727.94;;;15.69;80.91
3082;BME280;1551;51.046;7.010;2024-02-16T12:18:34;100728.72;;;15.72;81.46
3082;BME280;1551;51.046;7.010;2024-02-16T12:21:23;100727.94;;;15.70;81.06
3082;BME280;1551;51.046;7.010;2024-02-16T12:24:12;100733.09;;;15.70;81.72
3082;BME280;1551;51.046;7.010;2024-02-16T12:27:01;100732.25;;;15.70;81.38
3082;BME280;1551;51.046;7.010;2024-02-16T12:29:50;100739.19;;;15.68;81.93
3082;BME280;1551;51.046;7.010;2024-02-16T12:32:39;100738.34;;;15.67;82.44
3082;BME280;1551;51.046;7.010;2024-02-16T12:35:28;100748.66;;;15.67;82.50
3082;BME280;1551;51.046;7.010;2024-02-16T12:38:18;100755.75;;;15.59;83.17
3082;BME280;1551;51.046;7.010;2024-02-16T12:41:08;100752.38;;;15.59;83.53
3082;BME280;1551;51.046;7.010;2024-02-16T12:43:57;100750.47;;;15.64;84.03
3082;BME280;1551;51.046;7.010;2024-02-16T12:46:46;100759.78;;;15.69;84.64
3082;BME280;1551;51.046;7.010;2024-02-16T12:49:35;100770.22;;;15.65;84.97
3082;BME280;1551;51.046;7.010;2024-02-16T12:52:24;100762.69;;;15.59;85.45
3082;BME280;1551;51.046;7.010;2024-02-16T12:55:13;100771.22;;;15.61;85.87
3082;BME280;1551;51.046;7.010;2024-02-16T12:58:03;100758.47;;;15.55;86.21
3082;BME280;1551;51.046;7.010;2024-02-16T13:00:52;100772.94;;;15.60;86.09
3082;BME280;1551;51.046;7.010;2024-02-16T13:03:41;100785.00;;;15.60;86.19
3082;BME280;1551;51.046;7.010;2024-02-16T13:06:30;100779.19;;;15.53;86.39
3082;BME280;1551;51.046;7.010;2024-02-16T13:09:19;100778.09;;;15.60;87.00
3082;BME280;1551;51.046;7.010;2024-02-16T13:12:08;100771.94;;;15.66;87.27
3082;BME280;1551;51.046;7.010;2024-02-16T13:14:57;100785.78;;;15.62;87.88
3082;BME280;1551;51.046;7.010;2024-02-16T13:17:46;100788.38;;;15.62;88.71
3082;BME280;1551;51.046;7.010;2024-02-16T13:20:35;100777.13;;;15.64;89.02
3082;BME280;1551;51.046;7.010;2024-02-16T13:23:24;100783.22;;;15.62;89.57
3082;BME280;1551;51.046;7.010;2024-02-16T13:26:13;100774.72;;;15.58;90.29
3082;BME280;1551;51.046;7.010;2024-02-16T13:29:02;100782.38;;;15.61;90.64
3082;BME280;1551;51.046;7.010;2024-02-16T13:31:51;100783.41;;;15.56;90.96
3082;BME280;1551;51.046;7.010;2024-02-16T13:34:40;100780.97;;;15.51;91.08
3082;BME280;1551;51.046;7.010;2024-02-16T13:37:29;100788.84;;;15.45;91.78
3082;BME280;1551;51.046;7.010;2024-02-16T13:40:19;100773.81;;;15.29;92.30
3082;BME280;1551;51.046;7.010;2024-02-16T13:43:08;100793.25;;;15.42;93.01
3082;BME280;1551;51.046;7.010;2024-02-16T13:45:57;100793.19;;;15.43;93.56
3082;BME280;1551;51.046;7.010;2024-02-16T13:48:47;100799.38;;;15.38;93.73
3082;BME280;1551;51.046;7.010;2024-02-16T13:51:36;100798.56;;;15.36;93.85
3082;BME280;1551;51.046;7.010;2024-02-16T13:54:26;100796.16;;;15.30;94.40
3082;BME280;1551;51.046;7.010;2024-02-16T13:57:15;100805.50;;;15.34;94.74
3082;BME280;1551;51.046;7.010;2024-02-16T14:00:05;100812.28;;;15.38;95.19
3082;BME280;1551;51.046;7.010;2024-02-16T14:03:01;100807.13;;;15.36;94.80
3082;BME280;1551;51.046;7.010;2024-02-16T14:05:50;100817.50;;;15.35;95.11
3082;BME280;1551;51.046;7.010;2024-02-16T14:08:40;100824.72;;;15.22;95.37
3082;BME280;1551;51.046;7.010;2024-02-16T14:11:29;100827.28;;;15.24;96.18
3082;BME280;1551;51.046;7.010;2024-02-16T14:14:18;100821.19;;;15.26;96.01
3082;BME280;1551;51.046;7.010;2024-02-16T14:17:07;100822.94;;;15.24;96.07
3082;BME280;1551;51.046;7.010;2024-02-16T14:19:56;100829.63;;;15.31;96.64
3082;BME280;1551;51.046;7.010;2024-02-16T14:22:45;100828.09;;;15.24;96.75
3082;BME280;1551;51.046;7.010;2024-02-16T14:25:34;100834.28;;;15.19;97.15
3082;BME280;1551;51.046;7.010;2024-02-16T14:28:25;100831.59;;;15.22;97.69
3082;BME280;1551;51.046;7.010;2024-02-16T14:31:14;100840.03;;;15.28;97.27
3082;BME280;1551;51.046;7.010;2024-02-16T14:34:05;100846.06;;;15.27;97.27
3082;BME280;1551;51.046;7.010;2024-02-16T14:36:54;100854.75;;;15.25;97.29
3082;BME280;1551;51.046;7.010;2024-02-16T14:39:43;100857.44;;;15.20;97.45
3082;BME280;1551;51.046;7.010;2024-02-16T14:42:32;100862.59;;;15.20;97.10
3082;BME280;1551;51.046;7.010;2024-02-16T14:45:21;100871.25;;;15.19;97.47
3082;BME280;1551;51.046;7.010;2024-02-16T14:48:10;100863.59;;;15.14;97.74
3082;BME280;1551;51.046;7.010;2024-02-16T14:51:00;100872.97;;;15.19;98.23
3082;BME280;1551;51.046;7.010;2024-02-16T14:53:49;100872.22;;;15.13;98.29
3082;BME280;1551;51.046;7.010;2024-02-16T14:56:39;100873.97;;;15.13;98.23
3082;BME280;1551;51.046;7.010;2024-02-16T14:59:28;100874.84;;;15.12;98.82
3082;BME280;1551;51.046;7.010;2024-02-16T15:02:19;100877.34;;;15.15;99.49
3082;BME280;1551;51.046;7.010;2024-02-16T15:05:10;100882.53;;;15.13;98.99
3082;BME280;1551;51.046;7.010;2024-02-16T15:07:59;100882.59;;;15.12;99.83